sensor_id;sensor_type;location;lat;lon;timestamp;pressure;altitude;pressure_sealevel;temperature;humidity
77041;BME280;65974;42.664;23.264;2023-04-24T00:01:11;94148.66;;;9.76;64.85
77041;BME280;65974;42.664;23.264;2023-04-24T00:03:38;94145.63;;;9.78;65.09
77041;BME280;65974;42.664;23.264;2023-04-24T00:06:04;94146.00;;;9.76;65.48
77041;BME280;65974;42.664;23.264;2023-04-24T00:08:32;94148.66;;;9.76;65.50
77041;BME280;65974;42.664;23.264;2023-04-24T00:10:57;94147.16;;;9.68;64.96
77041;BME280;65974;42.664;23.264;2023-04-24T00:13:23;94134.22;;;9.70;64.52
77041;BME280;65974;42.664;23.264;2023-04-24T00:15:49;94138.78;;;9.66;65.12
77041;BME280;65974;42.664;23.264;2023-04-24T00:18:14;94139.53;;;9.49;66.38
77041;BME280;65974;42.664;23.264;2023-04-24T00:20:40;94140.66;;;9.41;67.05
77041;BME280;65974;42.664;23.264;2023-04-24T00:23:06;94141.00;;;9.36;66.49
77041;BME280;65974;42.664;23.264;2023-04-24T00:25:31;94138.31;;;9.25;67.11
77041;BME280;65974;42.664;23.264;2023-04-24T00:27:56;94132.59;;;9.20;67.48
77041;BME280;65974;42.664;23.264;2023-04-24T00:30:22;94132.59;;;9.20;67.36
77041;BME280;65974;42.664;23.264;2023-04-24T00:32:47;94132.97;;;9.18;67.56
77041;BME280;65974;42.664;23.264;2023-04-24T00:35:13;94134.09;;;9.14;67.82
77041;BME280;65974;42.664;23.264;2023-04-24T00:37:39;94136.75;;;9.10;68.15
77041;BME280;65974;42.664;23.264;2023-04-24T00:40:06;94135.97;;;9.10;67.87
77041;BME280;65974;42.664;23.264;2023-04-24T00:42:31;94132.59;;;9.13;68.00
77041;BME280;65974;42.664;23.264;2023-04-24T00:44:58;94128.06;;;9.24;67.45
77041;BME280;65974;42.664;23.264;2023-04-24T00:47:25;94136.44;;;9.29;66.97
77041;BME280;65974;42.664;23.264;2023-04-24T00:49:50;94135.66;;;9.25;67.21
77041;BME280;65974;42.664;23.264;2023-04-24T00:52:16;94139.09;;;9.26;67.13
77041;BME280;65974;42.664;23.264;2023-04-24T00:54:44;94135.28;;;9.27;66.77
77041;BME280;65974;42.664;23.264;2023-04-24T00:57:10;94137.56;;;9.28;66.29
77041;BME280;65974;42.664;23.264;2023-04-24T00:59:36;94136.03;;;9.27;66.91
77041;BME280;65974;42.664;23.264;2023-04-24T01:02:02;94125.81;;;9.33;67.69
77041;BME280;65974;42.664;23.264;2023-04-24T01:04:28;94124.69;;;9.37;69.08
77041;BME280;65974;42.664;23.264;2023-04-24T01:06:54;94120.88;;;9.28;71.74
77041;BME280;65974;42.664;23.264;2023-04-24T01:09:23;94113.63;;;9.28;72.13
77041;BME280;65974;42.664;23.264;2023-04-24T01:11:49;94109.84;;;9.22;72.68
77041;BME280;65974;42.664;23.264;2023-04-24T01:14:15;94111.38;;;9.27;73.87
77041;BME280;65974;42.664;23.264;2023-04-24T01:16:40;94106.84;;;9.34;73.66
77041;BME280;65974;42.664;23.264;2023-04-24T01:19:10;94098.81;;;9.17;73.58
77041;BME280;65974;42.664;23.264;2023-04-24T01:21:37;94086.31;;;9.17;73.13
77041;BME280;65974;42.664;23.264;2023-04-24T01:24:04;94095.03;;;9.21;73.58
77041;BME280;65974;42.664;23.264;2023-04-24T01:26:30;94100.34;;;9.28;73.30
77041;BME280;65974;42.664;23.264;2023-04-24T01:28:56;94091.63;;;9.24;72.28
77041;BME280;65974;42.664;23.264;2023-04-24T01:31:21;94101.09;;;9.15;71.79
77041;BME280;65974;42.664;23.264;2023-04-24T01:33:47;94096.53;;;9.12;73.65
77041;BME280;65974;42.664;23.264;2023-04-24T01:36:13;94099.56;;;9.14;74.92
77041;BME280;65974;42.664;23.264;2023-04-24T01:38:38;94100.28;;;8.97;75.19
77041;BME280;65974;42.664;23.264;2023-04-24T01:41:04;94085.84;;;8.91;75.96
77041;BME280;65974;42.664;23.264;2023-04-24T01:43:30;94084.28;;;8.83;77.49
77041;BME280;65974;42.664;23.264;2023-04-24T01:45:55;94097.22;;;8.95;75.13
77041;BME280;65974;42.664;23.264;2023-04-24T01:48:21;94094.94;;;8.93;73.18
77041;BME280;65974;42.664;23.264;2023-04-24T01:50:47;94090.38;;;8.87;74.36
77041;BME280;65974;42.664;23.264;2023-04-24T01:53:12;94091.16;;;8.87;73.19
77041;BME280;65974;42.664;23.264;2023-04-24T01:55:38;94090.38;;;8.90;71.83
77041;BME280;65974;42.664;23.264;2023-04-24T01:58:03;94087.34;;;8.85;72.77
77041;BME280;65974;42.664;23.264;2023-04-24T02:00:30;94093.75;;;8.80;72.91
77041;BME280;65974;42.664;23.264;2023-04-24T02:02:56;94096.72;;;8.65;74.28
77041;BME280;65974;42.664;23.264;2023-04-24T02:05:21;94089.09;;;8.52;75.85
77041;BME280;65974;42.664;23.264;2023-04-24T02:07:47;94091.69;;;8.42;75.97
77041;BME280;65974;42.664;23.264;2023-04-24T02:10:12;94089.00;;;8.31;76.22
77041;BME280;65974;42.664;23.264;2023-04-24T02:12:40;94092.31;;;8.21;76.81
77041;BME280;65974;42.664;23.264;2023-04-24T02:15:06;94102.16;;;8.17;77.16
77041;BME280;65974;42.664;23.264;2023-04-24T02:17:32;94095.25;;;8.06;78.02
77041;BME280;65974;42.664;23.264;2023-04-24T02:19:57;94094.78;;;7.93;79.09
77041;BME280;65974;42.664;23.264;2023-04-24T02:22:22;94087.91;;;7.85;78.93
77041;BME280;65974;42.664;23.264;2023-04-24T02:24:51;94086.38;;;7.84;79.72
77041;BME280;65974;42.664;23.264;2023-04-24T02:27:16;94085.63;;;7.83;80.35
77041;BME280;65974;42.664;23.264;2023-04-24T02:29:43;94080.72;;;7.86;80.01
77041;BME280;65974;42.664;23.264;2023-04-24T02:32:08;94077.69;;;7.83;79.72
77041;BME280;65974;42.664;23.264;2023-04-24T02:34:37;94073.09;;;7.77;80.54
77041;BME280;65974;42.664;23.264;2023-04-24T02:37:02;94068.91;;;7.76;80.20
77041;BME280;65974;42.664;23.264;2023-04-24T02:39:28;94068.50;;;7.74;80.37
77041;BME280;65974;42.664;23.264;2023-04-24T02:41:53;94065.44;;;7.68;80.50
77041;BME280;65974;42.664;23.264;2023-04-24T02:44:18;94057.44;;;7.65;80.87
77041;BME280;65974;42.664;23.264;2023-04-24T02:46:44;94060.94;;;7.76;80.75
77041;BME280;65974;42.664;23.264;2023-04-24T02:49:10;94053.75;;;7.73;81.30
77041;BME280;65974;42.664;23.264;2023-04-24T02:51:37;94054.78;;;7.61;81.02
77041;BME280;65974;42.664;23.264;2023-04-24T02:54:05;94046.47;;;7.63;80.98
77041;BME280;65974;42.664;23.264;2023-04-24T02:56:31;94051.41;;;7.64;81.00
77041;BME280;65974;42.664;23.264;2023-04-24T02:58:56;94056.41;;;7.73;81.06
77041;BME280;65974;42.664;23.264;2023-04-24T03:01:22;94053.25;;;7.60;80.06
77041;BME280;65974;42.664;23.264;2023-04-24T03:03:47;94055.56;;;7.62;80.17
77041;BME280;65974;42.664;23.264;2023-04-24T03:06:12;94058.06;;;7.48;81.15
77041;BME280;65974;42.664;23.264;2023-04-24T03:08:38;94071.38;;;7.51;80.98
77041;BME280;65974;42.664;23.264;2023-04-24T03:11:05;94072.84;;;7.49;79.30
77041;BME280;65974;42.664;23.264;2023-04-24T03:13:30;94072.88;;;7.52;81.03
77041;BME280;65974;42.664;23.264;2023-04-24T03:15:57;94066.88;;;7.59;79.32
77041;BME280;65974;42.664;23.264;2023-04-24T03:18:23;94080.19;;;7.66;78.22
77041;BME280;65974;42.664;23.264;2023-04-24T03:20:49;94077.53;;;7.66;77.10
77041;BME280;65974;42.664;23.264;2023-04-24T03:23:15;94078.25;;;7.63;76.61
77041;BME280;65974;42.664;23.264;2023-04-24T03:25:42;94071.06;;;7.63;75.58
77041;BME280;65974;42.664;23.264;2023-04-24T03:28:08;94071.53;;;7.72;76.08
77041;BME280;65974;42.664;23.264;2023-04-24T03:30:33;94074.91;;;7.69;75.73
77041;BME280;65974;42.664;23.264;2023-04-24T03:32:59;94071.44;;;7.62;75.51
77041;BME280;65974;42.664;23.264;2023-04-24T03:35:25;94054.03;;;7.61;76.60
77041;BME280;65974;42.664;23.264;2023-04-24T03:37:51;94073.75;;;7.67;76.55
77041;BME280;65974;42.664;23.264;2023-04-24T03:40:16;94071.53;;;7.72;77.97
77041;BME280;65974;42.664;23.264;2023-04-24T03:42:41;94067.75;;;7.73;77.31
77041;BME280;65974;42.664;23.264;2023-04-24T03:45:08;94067.00;;;7.73;77.25
77041;BME280;65974;42.664;23.264;2023-04-24T03:47:33;94058.66;;;7.74;76.45
77041;BME280;65974;42.664;23.264;2023-04-24T03:49:59;94059.78;;;7.70;75.89
77041;BME280;65974;42.664;23.264;2023-04-24T03:52:24;94065.44;;;7.68;76.80
77041;BME280;65974;42.664;23.264;2023-04-24T03:54:50;94057.06;;;7.63;77.71
77041;BME280;65974;42.664;23.264;2023-04-24T03:57:15;94070.28;;;7.59;77.84
77041;BME280;65974;42.664;23.264;2023-04-24T03:59:40;94071.00;;;7.56;78.91
77041;BME280;65974;42.664;23.264;2023-04-24T04:02:06;94063.22;;;7.74;78.05
77041;BME280;65974;42.664;23.264;2023-04-24T04:04:32;94065.44;;;7.68;78.13
77041;BME280;65974;42.664;23.264;2023-04-24T04:06:58;94070.69;;;7.65;77.67
77041;BME280;65974;42.664;23.264;2023-04-24T04:09:26;94071.88;;;7.71;76.70
77041;BME280;65974;42.664;23.264;2023-04-24T04:11:54;94059.47;;;7.82;77.89
77041;BME280;65974;42.664;23.264;2023-04-24T04:14:19;94064.09;;;7.92;77.22
77041;BME280;65974;42.664;23.264;2023-04-24T04:16:44;94063.34;;;7.95;77.34
77041;BME280;65974;42.664;23.264;2023-04-24T04:19:10;94061.91;;;8.08;75.47
77041;BME280;65974;42.664;23.264;2023-04-24T04:21:35;94069.88;;;8.08;76.77
77041;BME280;65974;42.664;23.264;2023-04-24T04:24:01;94066.50;;;8.11;75.73
77041;BME280;65974;42.664;23.264;2023-04-24T04:26:27;94066.06;;;8.06;75.40
77041;BME280;65974;42.664;23.264;2023-04-24T04:28:52;94073.66;;;8.07;74.64
77041;BME280;65974;42.664;23.264;2023-04-24T04:31:19;94068.72;;;8.06;75.38
77041;BME280;65974;42.664;23.264;2023-04-24T04:33:45;94073.31;;;8.09;74.68
77041;BME280;65974;42.664;23.264;2023-04-24T04:36:10;94076.69;;;8.09;74.73
77041;BME280;65974;42.664;23.264;2023-04-24T04:38:37;94080.53;;;8.15;76.10
77041;BME280;65974;42.664;23.264;2023-04-24T04:41:03;94091.53;;;8.17;74.73
77041;BME280;65974;42.664;23.264;2023-04-24T04:43:28;94099.13;;;8.19;73.66
77041;BME280;65974;42.664;23.264;2023-04-24T04:45:53;94102.56;;;8.23;73.23
77041;BME280;65974;42.664;23.264;2023-04-24T04:48:21;94100.75;;;8.30;72.83
77041;BME280;65974;42.664;23.264;2023-04-24T04:50:46;94105.97;;;8.23;71.05
77041;BME280;65974;42.664;23.264;2023-04-24T04:53:12;94111.31;;;8.27;71.90
77041;BME280;65974;42.664;23.264;2023-04-24T04:55:38;94103.03;;;8.35;72.16
77041;BME280;65974;42.664;23.264;2023-04-24T04:58:04;94101.13;;;8.32;71.78
77041;BME280;65974;42.664;23.264;2023-04-24T05:00:29;94098.47;;;8.32;71.11
77041;BME280;65974;42.664;23.264;2023-04-24T05:03:00;94103.81;;;8.39;68.95
77041;BME280;65974;42.664;23.264;2023-04-24T05:05:25;94101.59;;;8.45;70.46
77041;BME280;65974;42.664;23.264;2023-04-24T05:07:51;94105.38;;;8.47;70.07
77041;BME280;65974;42.664;23.264;2023-04-24T05:10:16;94104.59;;;8.43;69.82
77041;BME280;65974;42.664;23.264;2023-04-24T05:12:42;94097.00;;;8.45;69.52
77041;BME280;65974;42.664;23.264;2023-04-24T05:15:07;94098.56;;;8.50;69.43
77041;BME280;65974;42.664;23.264;2023-04-24T05:17:33;94111.47;;;8.51;69.70
77041;BME280;65974;42.664;23.264;2023-04-24T05:19:58;94105.41;;;8.54;69.03
77041;BME280;65974;42.664;23.264;2023-04-24T05:22:24;94105.50;;;8.72;69.18
77041;BME280;65974;42.664;23.264;2023-04-24T05:24:49;94111.56;;;8.76;69.17
77041;BME280;65974;42.664;23.264;2023-04-24T05:27:16;94104.81;;;8.86;68.36
77041;BME280;65974;42.664;23.264;2023-04-24T05:29:41;94100.19;;;8.76;69.75
77041;BME280;65974;42.664;23.264;2023-04-24T05:32:07;94101.78;;;8.91;69.14
77041;BME280;65974;42.664;23.264;2023-04-24T05:34:32;94098.00;;;8.92;69.04
77041;BME280;65974;42.664;23.264;2023-04-24T05:36:58;94104.03;;;8.89;69.29
77041;BME280;65974;42.664;23.264;2023-04-24T05:39:23;94102.53;;;8.91;69.55
77041;BME280;65974;42.664;23.264;2023-04-24T05:41:50;94104.81;;;8.86;69.44
77041;BME280;65974;42.664;23.264;2023-04-24T05:44:15;94104.47;;;8.94;68.45
77041;BME280;65974;42.664;23.264;2023-04-24T05:46:41;94116.63;;;9.06;66.77
77041;BME280;65974;42.664;23.264;2023-04-24T05:49:06;94106.75;;;9.10;66.81
77041;BME280;65974;42.664;23.264;2023-04-24T05:51:32;94113.63;;;9.25;65.28
77041;BME280;65974;42.664;23.264;2023-04-24T05:53:58;94103.41;;;9.34;64.28
77041;BME280;65974;42.664;23.264;2023-04-24T05:56:23;94098.13;;;9.41;63.94
77041;BME280;65974;42.664;23.264;2023-04-24T05:58:49;94100.44;;;9.60;63.14
77041;BME280;65974;42.664;23.264;2023-04-24T06:01:14;94100.78;;;9.55;63.75
77041;BME280;65974;42.664;23.264;2023-04-24T06:03:41;94101.16;;;9.71;63.19
77041;BME280;65974;42.664;23.264;2023-04-24T06:06:07;94102.72;;;9.83;63.11
77041;BME280;65974;42.664;23.264;2023-04-24T06:08:33;94101.19;;;9.96;61.58
77041;BME280;65974;42.664;23.264;2023-04-24T06:10:59;94100.03;;;9.97;62.31
77041;BME280;65974;42.664;23.264;2023-04-24T06:13:24;94104.25;;;9.94;62.28
77041;BME280;65974;42.664;23.264;2023-04-24T06:15:50;94100.41;;;10.09;61.98
77041;BME280;65974;42.664;23.264;2023-04-24T06:18:16;94100.81;;;10.22;61.29
77041;BME280;65974;42.664;23.264;2023-04-24T06:20:41;94097.00;;;10.23;61.36
77041;BME280;65974;42.664;23.264;2023-04-24T06:23:07;94098.56;;;10.13;61.17
77041;BME280;65974;42.664;23.264;2023-04-24T06:25:32;94100.00;;;10.43;60.76
77041;BME280;65974;42.664;23.264;2023-04-24T06:27:58;94097.72;;;10.45;60.40
77041;BME280;65974;42.664;23.264;2023-04-24T06:30:23;94098.09;;;10.40;60.25
77041;BME280;65974;42.664;23.264;2023-04-24T06:32:49;94098.91;;;10.37;60.88
77041;BME280;65974;42.664;23.264;2023-04-24T06:35:14;94101.53;;;10.40;60.94
77041;BME280;65974;42.664;23.264;2023-04-24T06:37:41;94107.22;;;10.42;61.19
77041;BME280;65974;42.664;23.264;2023-04-24T06:40:07;94105.28;;;10.57;61.07
77041;BME280;65974;42.664;23.264;2023-04-24T06:42:33;94107.97;;;10.53;60.68
77041;BME280;65974;42.664;23.264;2023-04-24T06:45:00;94111.41;;;10.50;60.75
77041;BME280;65974;42.664;23.264;2023-04-24T06:47:26;94114.44;;;10.56;60.95
77041;BME280;65974;42.664;23.264;2023-04-24T06:49:51;94112.84;;;10.76;60.62
77041;BME280;65974;42.664;23.264;2023-04-24T06:52:18;94104.34;;;11.09;59.36
77041;BME280;65974;42.664;23.264;2023-04-24T06:54:43;94100.94;;;11.09;59.24
77041;BME280;65974;42.664;23.264;2023-04-24T06:57:12;94104.28;;;11.23;59.19
77041;BME280;65974;42.664;23.264;2023-04-24T06:59:39;94095.13;;;11.28;58.25
77041;BME280;65974;42.664;23.264;2023-04-24T07:02:04;94088.28;;;11.23;59.04
77041;BME280;65974;42.664;23.264;2023-04-24T07:04:30;94084.34;;;11.45;57.68
77041;BME280;65974;42.664;23.264;2023-04-24T07:06:56;94086.97;;;11.52;58.17
77041;BME280;65974;42.664;23.264;2023-04-24T07:09:24;94093.34;;;11.65;57.39
77041;BME280;65974;42.664;23.264;2023-04-24T07:11:50;94085.63;;;11.85;57.28
77041;BME280;65974;42.664;23.264;2023-04-24T07:14:16;94085.94;;;11.94;56.70
77041;BME280;65974;42.664;23.264;2023-04-24T07:16:42;94080.78;;;12.14;56.87
77041;BME280;65974;42.664;23.264;2023-04-24T07:19:08;94076.66;;;12.46;55.36
77041;BME280;65974;42.664;23.264;2023-04-24T07:21:34;94071.06;;;12.34;55.16
77041;BME280;65974;42.664;23.264;2023-04-24T07:23:59;94075.59;;;12.40;55.55
77041;BME280;65974;42.664;23.264;2023-04-24T07:26:26;94074.59;;;12.65;55.10
77041;BME280;65974;42.664;23.264;2023-04-24T07:28:52;94072.03;;;12.84;54.34
77041;BME280;65974;42.664;23.264;2023-04-24T07:31:18;94075.47;;;12.88;53.77
77041;BME280;65974;42.664;23.264;2023-04-24T07:33:44;94066.81;;;12.74;53.97
77041;BME280;65974;42.664;23.264;2023-04-24T07:36:09;94070.41;;;12.94;54.19
77041;BME280;65974;42.664;23.264;2023-04-24T07:38:41;94068.34;;;13.08;54.32
77041;BME280;65974;42.664;23.264;2023-04-24T07:41:07;94073.63;;;13.12;53.67
77041;BME280;65974;42.664;23.264;2023-04-24T07:43:32;94067.81;;;13.20;53.24
77041;BME280;65974;42.664;23.264;2023-04-24T07:45:57;94063.91;;;13.25;53.42
77041;BME280;65974;42.664;23.264;2023-04-24T07:48:23;94065.16;;;13.47;52.38
77041;BME280;65974;42.664;23.264;2023-04-24T07:50:51;94068.19;;;13.49;52.90
77041;BME280;65974;42.664;23.264;2023-04-24T07:53:16;94063.94;;;13.52;52.91
77041;BME280;65974;42.664;23.264;2023-04-24T07:55:41;94059.53;;;13.38;53.00
77041;BME280;65974;42.664;23.264;2023-04-24T07:58:07;94059.91;;;13.40;52.71
77041;BME280;65974;42.664;23.264;2023-04-24T08:00:32;94056.31;;;13.23;52.68
77041;BME280;65974;42.664;23.264;2023-04-24T08:02:59;94053.06;;;13.36;52.90
77041;BME280;65974;42.664;23.264;2023-04-24T08:05:24;94046.91;;;13.65;51.71
77041;BME280;65974;42.664;23.264;2023-04-24T08:07:52;94049.03;;;13.51;51.82
77041;BME280;65974;42.664;23.264;2023-04-24T08:10:18;94051.91;;;13.63;52.17
77041;BME280;65974;42.664;23.264;2023-04-24T08:12:43;94049.06;;;13.97;51.46
77041;BME280;65974;42.664;23.264;2023-04-24T08:15:09;94049.81;;;14.01;50.88
77041;BME280;65974;42.664;23.264;2023-04-24T08:17:35;94049.72;;;14.28;51.44
77041;BME280;65974;42.664;23.264;2023-04-24T08:20:01;94045.38;;;14.37;51.20
77041;BME280;65974;42.664;23.264;2023-04-24T08:22:28;94037.53;;;14.46;50.36
77041;BME280;65974;42.664;23.264;2023-04-24T08:24:54;94041.72;;;14.47;50.32
77041;BME280;65974;42.664;23.264;2023-04-24T08:27:19;94040.56;;;14.68;49.02
77041;BME280;65974;42.664;23.264;2023-04-24T08:29:44;94044.28;;;14.54;49.21
77041;BME280;65974;42.664;23.264;2023-04-24T08:32:10;94043.31;;;14.64;49.43
77041;BME280;65974;42.664;23.264;2023-04-24T08:34:35;94027.84;;;14.72;49.01
77041;BME280;65974;42.664;23.264;2023-04-24T08:37:01;94037.47;;;14.50;49.47
77041;BME280;65974;42.664;23.264;2023-04-24T08:39:27;94030.31;;;14.43;50.89
77041;BME280;65974;42.664;23.264;2023-04-24T08:41:53;94013.06;;;14.44;50.40
77041;BME280;65974;42.664;23.264;2023-04-24T08:44:19;94009.78;;;14.76;50.26
77041;BME280;65974;42.664;23.264;2023-04-24T08:46:45;94009.16;;;14.88;48.92
77041;BME280;65974;42.664;23.264;2023-04-24T08:49:13;94005.69;;;15.07;48.68
77041;BME280;65974;42.664;23.264;2023-04-24T08:51:39;94000.78;;;15.22;48.13
77041;BME280;65974;42.664;23.264;2023-04-24T08:54:05;94002.38;;;15.35;47.40
77041;BME280;65974;42.664;23.264;2023-04-24T08:56:33;94004.38;;;15.31;48.06
77041;BME280;65974;42.664;23.264;2023-04-24T08:58:59;93994.41;;;15.32;47.90
77041;BME280;65974;42.664;23.264;2023-04-24T09:01:24;93988.25;;;15.51;47.97
77041;BME280;65974;42.664;23.264;2023-04-24T09:03:51;93985.97;;;15.82;47.65
77041;BME280;65974;42.664;23.264;2023-04-24T09:06:19;93985.38;;;15.90;47.57
77041;BME280;65974;42.664;23.264;2023-04-24T09:08:45;93981.25;;;16.02;46.87
77041;BME280;65974;42.664;23.264;2023-04-24T09:11:11;93967.91;;;16.27;46.32
77041;BME280;65974;42.664;23.264;2023-04-24T09:13:37;93975.66;;;16.25;46.49
77041;BME280;65974;42.664;23.264;2023-04-24T09:16:03;93966.84;;;16.24;46.71
77041;BME280;65974;42.664;23.264;2023-04-24T09:18:29;93968.06;;;16.36;46.32
77041;BME280;65974;42.664;23.264;2023-04-24T09:21:12;93958.50;;;16.35;46.45
77041;BME280;65974;42.664;23.264;2023-04-24T09:23:38;93966.03;;;16.56;46.42
77041;BME280;65974;42.664;23.264;2023-04-24T09:26:04;93953.78;;;16.68;45.64
77041;BME280;65974;42.664;23.264;2023-04-24T09:28:37;93958.44;;;16.80;45.17
77041;BME280;65974;42.664;23.264;2023-04-24T09:33:30;93955.44;;;16.78;45.28
77041;BME280;65974;42.664;23.264;2023-04-24T09:35:55;93951.00;;;16.71;44.81
77041;BME280;65974;42.664;23.264;2023-04-24T09:38:41;93950.75;;;16.66;45.46
77041;BME280;65974;42.664;23.264;2023-04-24T09:41:08;93951.84;;;16.68;44.75
77041;BME280;65974;42.664;23.264;2023-04-24T09:43:34;93947.13;;;16.72;44.63
77041;BME280;65974;42.664;23.264;2023-04-24T09:46:05;93944.13;;;16.95;44.62
77041;BME280;65974;42.664;23.264;2023-04-24T09:48:32;93945.88;;;17.15;43.97
77041;BME280;65974;42.664;23.264;2023-04-24T09:50:58;93941.69;;;17.26;43.92
77041;BME280;65974;42.664;23.264;2023-04-24T09:53:24;93937.13;;;17.48;43.55
77041;BME280;65974;42.664;23.264;2023-04-24T09:55:51;93922.94;;;17.60;43.17
77041;BME280;65974;42.664;23.264;2023-04-24T09:58:24;93931.75;;;17.73;41.15
77041;BME280;65974;42.664;23.264;2023-04-24T10:00:49;93923.53;;;17.77;42.18
77041;BME280;65974;42.664;23.264;2023-04-24T10:03:18;93926.34;;;18.08;40.55
77041;BME280;65974;42.664;23.264;2023-04-24T10:05:46;93921.34;;;17.97;41.74
77041;BME280;65974;42.664;23.264;2023-04-24T10:08:12;93924.38;;;17.87;40.62
77041;BME280;65974;42.664;23.264;2023-04-24T10:10:43;93920.72;;;17.80;41.00
77041;BME280;65974;42.664;23.264;2023-04-24T10:13:12;93909.34;;;17.64;42.10
77041;BME280;65974;42.664;23.264;2023-04-24T10:15:40;93891.28;;;17.86;42.36
77041;BME280;65974;42.664;23.264;2023-04-24T10:18:06;93895.19;;;18.07;41.54
77041;BME280;65974;42.664;23.264;2023-04-24T10:20:33;93896.47;;;18.36;40.02
77041;BME280;65974;42.664;23.264;2023-04-24T10:23:00;93892.69;;;18.12;40.25
77041;BME280;65974;42.664;23.264;2023-04-24T10:25:28;93895.31;;;18.03;40.43
77041;BME280;65974;42.664;23.264;2023-04-24T10:27:55;93901.91;;;18.02;40.76
77041;BME280;65974;42.664;23.264;2023-04-24T10:30:29;93887.34;;;18.00;39.14
77041;BME280;65974;42.664;23.264;2023-04-24T10:32:55;93879.78;;;18.07;37.75
77041;BME280;65974;42.664;23.264;2023-04-24T10:35:21;93879.72;;;18.20;37.88
77041;BME280;65974;42.664;23.264;2023-04-24T10:37:54;93866.66;;;18.62;37.10
77041;BME280;65974;42.664;23.264;2023-04-24T10:40:26;93860.47;;;19.31;36.28
77041;BME280;65974;42.664;23.264;2023-04-24T10:42:52;93873.06;;;19.83;34.93
77041;BME280;65974;42.664;23.264;2023-04-24T10:45:21;93858.63;;;19.68;34.15
77041;BME280;65974;42.664;23.264;2023-04-24T10:48:01;93849.31;;;19.78;35.05
77041;BME280;65974;42.664;23.264;2023-04-24T10:50:41;93858.63;;;19.77;35.67
77041;BME280;65974;42.664;23.264;2023-04-24T10:53:07;93863.31;;;19.95;34.34
77041;BME280;65974;42.664;23.264;2023-04-24T10:55:45;93849.78;;;19.59;34.93
77041;BME280;65974;42.664;23.264;2023-04-24T10:58:10;93853.38;;;19.56;35.23
77041;BME280;65974;42.664;23.264;2023-04-24T11:00:38;93849.59;;;19.44;35.73
77041;BME280;65974;42.664;23.264;2023-04-24T11:03:05;93850.34;;;19.54;35.44
77041;BME280;65974;42.664;23.264;2023-04-24T11:05:58;93863.19;;;19.22;36.57
77041;BME280;65974;42.664;23.264;2023-04-24T11:08:25;93859.50;;;18.98;36.07
77041;BME280;65974;42.664;23.264;2023-04-24T11:11:08;93861.84;;;18.87;35.78
77041;BME280;65974;42.664;23.264;2023-04-24T11:21:55;93922.91;;;16.60;52.65
77041;BME280;65974;42.664;23.264;2023-04-24T11:27:05;93912.78;;;16.64;52.89
77041;BME280;65974;42.664;23.264;2023-04-24T11:32:33;93915.19;;;16.33;49.99
77041;BME280;65974;42.664;23.264;2023-04-24T11:35:06;93917.88;;;16.04;53.89
77041;BME280;65974;42.664;23.264;2023-04-24T11:37:37;93908.34;;;15.87;57.41
77041;BME280;65974;42.664;23.264;2023-04-24T11:40:04;93897.97;;;15.73;60.00
77041;BME280;65974;42.664;23.264;2023-04-24T11:42:41;93894.97;;;15.55;58.64
77041;BME280;65974;42.664;23.264;2023-04-24T11:45:11;93887.22;;;15.73;58.69
77041;BME280;65974;42.664;23.264;2023-04-24T11:47:38;93882.81;;;15.95;60.01
77041;BME280;65974;42.664;23.264;2023-04-24T11:50:06;93874.50;;;16.18;60.30
77041;BME280;65974;42.664;23.264;2023-04-24T11:52:33;93879.75;;;16.51;61.21
77041;BME280;65974;42.664;23.264;2023-04-24T11:55:01;93871.94;;;16.69;58.83
77041;BME280;65974;42.664;23.264;2023-04-24T11:57:27;93866.34;;;17.01;54.12
77041;BME280;65974;42.664;23.264;2023-04-24T11:59:54;93861.50;;;16.96;47.76
77041;BME280;65974;42.664;23.264;2023-04-24T12:02:21;93853.97;;;16.91;48.49
77041;BME280;65974;42.664;23.264;2023-04-24T12:04:46;93857.47;;;17.26;48.52
77041;BME280;65974;42.664;23.264;2023-04-24T12:07:12;93852.28;;;17.44;49.38
77041;BME280;65974;42.664;23.264;2023-04-24T12:09:41;93851.06;;;17.57;48.44
77041;BME280;65974;42.664;23.264;2023-04-24T12:12:08;93856.19;;;17.77;47.37
77041;BME280;65974;42.664;23.264;2023-04-24T12:14:44;93852.44;;;17.74;47.81
77041;BME280;65974;42.664;23.264;2023-04-24T12:17:10;93837.97;;;17.81;48.93
77041;BME280;65974;42.664;23.264;2023-04-24T12:19:36;93839.53;;;18.13;45.15
77041;BME280;65974;42.664;23.264;2023-04-24T12:22:05;93824.19;;;18.44;43.99
77041;BME280;65974;42.664;23.264;2023-04-24T12:24:31;93816.88;;;18.01;42.95
77041;BME280;65974;42.664;23.264;2023-04-24T12:26:57;93814.41;;;18.16;44.01
77041;BME280;65974;42.664;23.264;2023-04-24T12:29:24;93807.13;;;18.47;44.31
77041;BME280;65974;42.664;23.264;2023-04-24T12:31:50;93808.94;;;18.50;42.70
77041;BME280;65974;42.664;23.264;2023-04-24T12:34:19;93797.34;;;18.71;42.06
77041;BME280;65974;42.664;23.264;2023-04-24T12:36:46;93800.91;;;18.59;41.07
77041;BME280;65974;42.664;23.264;2023-04-24T12:39:18;93796.63;;;18.49;42.13
77041;BME280;65974;42.664;23.264;2023-04-24T12:41:57;93786.97;;;18.39;41.73
77041;BME280;65974;42.664;23.264;2023-04-24T12:44:33;93783.03;;;18.62;42.20
77041;BME280;65974;42.664;23.264;2023-04-24T12:47:01;93784.94;;;18.92;42.14
77041;BME280;65974;42.664;23.264;2023-04-24T12:49:27;93775.25;;;19.12;40.98
77041;BME280;65974;42.664;23.264;2023-04-24T12:51:53;93756.00;;;18.83;40.80
77041;BME280;65974;42.664;23.264;2023-04-24T12:54:19;93758.16;;;18.57;41.43
77041;BME280;65974;42.664;23.264;2023-04-24T12:56:44;93760.84;;;18.57;42.65
77041;BME280;65974;42.664;23.264;2023-04-24T12:59:10;93748.13;;;18.58;42.07
77041;BME280;65974;42.664;23.264;2023-04-24T13:01:35;93748.09;;;18.89;41.83
77041;BME280;65974;42.664;23.264;2023-04-24T13:04:01;93740.19;;;19.58;40.21
77041;BME280;65974;42.664;23.264;2023-04-24T13:06:26;93734.78;;;20.45;38.24
77041;BME280;65974;42.664;23.264;2023-04-24T13:08:52;93725.84;;;20.95;37.06